Perham, Maine
Current Conditions -  °F | °C
As of 6:54 PM on Thursday 18 Dec 2014 (Local Time) from KCAR Reporting Station
Light Snow Light Snow  
Wind Chill: 12°   Ceiling: 3300
Heat Index: 26°   Visibility: 3mi
Dew Point: 22°   Wind: 21mph
Humidity: 84%   Direction: 330°NNW
Pressure: 29.6"   Gusts: 26mph
Location:  46.84°N, 68.2°W
Report Text: KCAR 182354Z AUTO 33018G23KT 3SM -SN BR BKN033 OVC085 M03/M06 A2960 RMK AO2 SLP036 P0000 60001 T10331056 11022 21033 53016
Loading
Personal Weather Stations






























Interactive Weather Map New forecast layout! Learn more

10-Day Weather Forecast

Advertisements
Track Severe Weather on mobile